sensor_id;sensor_type;location;lat;lon;timestamp;temperature;humidity
15967;DHT22;15175;48.154;11.534;2023-11-19T00:00:33;5.30;99.90
15967;DHT22;15175;48.154;11.534;2023-11-19T00:06:35;5.30;99.90
15967;DHT22;15175;48.154;11.534;2023-11-19T00:12:38;5.30;99.90
15967;DHT22;15175;48.154;11.534;2023-11-19T00:18:42;5.40;99.90
15967;DHT22;15175;48.154;11.534;2023-11-19T00:24:44;5.40;99.90
15967;DHT22;15175;48.154;11.534;2023-11-19T00:30:46;5.50;99.90
15967;DHT22;15175;48.154;11.534;2023-11-19T00:36:50;5.50;99.90
15967;DHT22;15175;48.154;11.534;2023-11-19T00:42:52;5.60;99.90
15967;DHT22;15175;48.154;11.534;2023-11-19T00:48:54;5.70;99.90
15967;DHT22;15175;48.154;11.534;2023-11-19T00:54:58;5.80;99.90
15967;DHT22;15175;48.154;11.534;2023-11-19T01:01:00;5.90;99.90
15967;DHT22;15175;48.154;11.534;2023-11-19T01:07:02;6.00;99.90
15967;DHT22;15175;48.154;11.534;2023-11-19T01:13:07;6.00;99.90
15967;DHT22;15175;48.154;11.534;2023-11-19T01:19:09;6.10;99.90
15967;DHT22;15175;48.154;11.534;2023-11-19T01:25:11;6.20;99.90
15967;DHT22;15175;48.154;11.534;2023-11-19T01:31:16;6.30;99.90
15967;DHT22;15175;48.154;11.534;2023-11-19T01:37:18;6.30;99.90
15967;DHT22;15175;48.154;11.534;2023-11-19T01:43:34;6.40;99.90
15967;DHT22;15175;48.154;11.534;2023-11-19T01:49:37;6.40;99.90
15967;DHT22;15175;48.154;11.534;2023-11-19T01:55:39;6.50;99.90
15967;DHT22;15175;48.154;11.534;2023-11-19T02:01:42;6.60;99.90
15967;DHT22;15175;48.154;11.534;2023-11-19T02:07:45;6.70;99.90
15967;DHT22;15175;48.154;11.534;2023-11-19T02:13:48;6.80;99.90
15967;DHT22;15175;48.154;11.534;2023-11-19T02:19:50;6.80;99.90
15967;DHT22;15175;48.154;11.534;2023-11-19T02:26:02;6.90;99.90
15967;DHT22;15175;48.154;11.534;2023-11-19T02:32:07;7.00;99.90
15967;DHT22;15175;48.154;11.534;2023-11-19T02:38:10;7.10;99.90
15967;DHT22;15175;48.154;11.534;2023-11-19T02:44:14;7.20;99.90
15967;DHT22;15175;48.154;11.534;2023-11-19T02:50:19;7.30;99.90
15967;DHT22;15175;48.154;11.534;2023-11-19T02:56:25;7.40;99.90
15967;DHT22;15175;48.154;11.534;2023-11-19T03:02:30;7.60;99.90
15967;DHT22;15175;48.154;11.534;2023-11-19T03:08:36;7.80;99.90
15967;DHT22;15175;48.154;11.534;2023-11-19T03:14:38;7.90;99.90
15967;DHT22;15175;48.154;11.534;2023-11-19T03:20:41;8.00;99.90
15967;DHT22;15175;48.154;11.534;2023-11-19T03:26:48;8.10;99.90
15967;DHT22;15175;48.154;11.534;2023-11-19T03:32:50;8.20;99.90
15967;DHT22;15175;48.154;11.534;2023-11-19T03:38:53;8.30;99.90
15967;DHT22;15175;48.154;11.534;2023-11-19T03:44:56;8.40;99.90
15967;DHT22;15175;48.154;11.534;2023-11-19T03:50:59;8.50;99.90
15967;DHT22;15175;48.154;11.534;2023-11-19T03:57:01;8.60;99.90
15967;DHT22;15175;48.154;11.534;2023-11-19T04:03:05;8.70;99.90
15967;DHT22;15175;48.154;11.534;2023-11-19T04:09:08;8.90;99.90
15967;DHT22;15175;48.154;11.534;2023-11-19T04:15:11;9.00;99.90
15967;DHT22;15175;48.154;11.534;2023-11-19T04:21:14;9.20;99.90
15967;DHT22;15175;48.154;11.534;2023-11-19T04:27:17;9.20;99.90
15967;DHT22;15175;48.154;11.534;2023-11-19T04:33:19;9.30;99.90
15967;DHT22;15175;48.154;11.534;2023-11-19T04:39:22;9.40;99.90
15967;DHT22;15175;48.154;11.534;2023-11-19T04:45:24;9.50;99.90
15967;DHT22;15175;48.154;11.534;2023-11-19T04:51:26;9.50;99.90
15967;DHT22;15175;48.154;11.534;2023-11-19T04:57:30;9.50;99.90
15967;DHT22;15175;48.154;11.534;2023-11-19T05:03:33;9.70;99.90
15967;DHT22;15175;48.154;11.534;2023-11-19T05:09:36;9.70;99.90
15967;DHT22;15175;48.154;11.534;2023-11-19T05:15:40;9.80;99.90
15967;DHT22;15175;48.154;11.534;2023-11-19T05:21:42;9.90;99.90
15967;DHT22;15175;48.154;11.534;2023-11-19T05:27:44;9.90;99.90
15967;DHT22;15175;48.154;11.534;2023-11-19T05:33:48;9.90;99.90
15967;DHT22;15175;48.154;11.534;2023-11-19T05:39:50;10.00;99.90
15967;DHT22;15175;48.154;11.534;2023-11-19T05:45:53;10.00;99.90
15967;DHT22;15175;48.154;11.534;2023-11-19T05:51:56;10.00;99.90
15967;DHT22;15175;48.154;11.534;2023-11-19T05:57:58;10.00;99.90
15967;DHT22;15175;48.154;11.534;2023-11-19T06:04:00;10.00;99.90
15967;DHT22;15175;48.154;11.534;2023-11-19T06:10:04;10.00;99.90
15967;DHT22;15175;48.154;11.534;2023-11-19T06:16:08;10.00;99.90
15967;DHT22;15175;48.154;11.534;2023-11-19T06:22:10;10.00;99.90
15967;DHT22;15175;48.154;11.534;2023-11-19T06:28:13;10.10;99.90
15967;DHT22;15175;48.154;11.534;2023-11-19T06:34:16;10.10;99.90
15967;DHT22;15175;48.154;11.534;2023-11-19T06:40:18;10.20;99.90
15967;DHT22;15175;48.154;11.534;2023-11-19T06:46:21;10.20;99.90
15967;DHT22;15175;48.154;11.534;2023-11-19T06:52:23;10.20;99.90
15967;DHT22;15175;48.154;11.534;2023-11-19T06:58:26;10.30;99.90
15967;DHT22;15175;48.154;11.534;2023-11-19T07:04:29;10.30;99.90
15967;DHT22;15175;48.154;11.534;2023-11-19T07:10:31;10.40;99.90
15967;DHT22;15175;48.154;11.534;2023-11-19T07:16:34;10.40;99.90
15967;DHT22;15175;48.154;11.534;2023-11-19T07:22:39;10.50;99.90
15967;DHT22;15175;48.154;11.534;2023-11-19T07:28:41;10.50;99.90
15967;DHT22;15175;48.154;11.534;2023-11-19T07:34:45;10.60;99.90
15967;DHT22;15175;48.154;11.534;2023-11-19T07:40:49;10.60;99.90
15967;DHT22;15175;48.154;11.534;2023-11-19T07:46:51;10.70;99.90
15967;DHT22;15175;48.154;11.534;2023-11-19T07:52:53;10.70;99.90
15967;DHT22;15175;48.154;11.534;2023-11-19T07:58:56;10.80;99.90
15967;DHT22;15175;48.154;11.534;2023-11-19T08:04:59;10.80;99.90
15967;DHT22;15175;48.154;11.534;2023-11-19T08:11:01;10.90;99.90
15967;DHT22;15175;48.154;11.534;2023-11-19T08:17:04;10.90;99.90
15967;DHT22;15175;48.154;11.534;2023-11-19T08:23:07;11.00;99.90
15967;DHT22;15175;48.154;11.534;2023-11-19T08:29:09;11.10;99.90
15967;DHT22;15175;48.154;11.534;2023-11-19T08:35:12;11.10;99.90
15967;DHT22;15175;48.154;11.534;2023-11-19T08:41:16;11.20;99.90
15967;DHT22;15175;48.154;11.534;2023-11-19T08:47:20;11.20;99.90
15967;DHT22;15175;48.154;11.534;2023-11-19T08:53:24;11.30;99.90
15967;DHT22;15175;48.154;11.534;2023-11-19T08:59:27;11.30;99.90
15967;DHT22;15175;48.154;11.534;2023-11-19T09:05:29;11.40;99.90
15967;DHT22;15175;48.154;11.534;2023-11-19T09:11:32;11.50;99.90
15967;DHT22;15175;48.154;11.534;2023-11-19T09:17:34;11.50;99.90
15967;DHT22;15175;48.154;11.534;2023-11-19T09:23:36;11.60;99.90
15967;DHT22;15175;48.154;11.534;2023-11-19T09:29:41;11.60;99.90
15967;DHT22;15175;48.154;11.534;2023-11-19T09:35:43;11.70;99.90
15967;DHT22;15175;48.154;11.534;2023-11-19T09:41:46;11.80;99.90
15967;DHT22;15175;48.154;11.534;2023-11-19T09:47:51;11.80;99.90
15967;DHT22;15175;48.154;11.534;2023-11-19T09:53:54;11.90;99.90
15967;DHT22;15175;48.154;11.534;2023-11-19T09:59:56;11.90;99.90
15967;DHT22;15175;48.154;11.534;2023-11-19T10:06:01;11.90;99.90
15967;DHT22;15175;48.154;11.534;2023-11-19T10:12:04;12.00;99.90
15967;DHT22;15175;48.154;11.534;2023-11-19T10:18:07;12.20;99.90
15967;DHT22;15175;48.154;11.534;2023-11-19T10:24:10;12.30;99.90
15967;DHT22;15175;48.154;11.534;2023-11-19T10:30:13;12.40;99.90
15967;DHT22;15175;48.154;11.534;2023-11-19T10:36:15;12.50;99.90
15967;DHT22;15175;48.154;11.534;2023-11-19T10:42:19;12.70;99.90
15967;DHT22;15175;48.154;11.534;2023-11-19T10:48:21;12.80;99.90
15967;DHT22;15175;48.154;11.534;2023-11-19T10:54:26;13.00;99.90
15967;DHT22;15175;48.154;11.534;2023-11-19T11:00:36;13.10;99.90
15967;DHT22;15175;48.154;11.534;2023-11-19T11:06:39;13.20;99.90
15967;DHT22;15175;48.154;11.534;2023-11-19T11:12:42;13.30;99.90
15967;DHT22;15175;48.154;11.534;2023-11-19T11:18:47;13.30;99.90
15967;DHT22;15175;48.154;11.534;2023-11-19T11:25:02;13.40;99.90
15967;DHT22;15175;48.154;11.534;2023-11-19T11:31:20;13.40;99.90
15967;DHT22;15175;48.154;11.534;2023-11-19T11:37:32;13.50;99.90
15967;DHT22;15175;48.154;11.534;2023-11-19T11:43:44;13.50;99.90
15967;DHT22;15175;48.154;11.534;2023-11-19T11:49:47;13.60;99.90
15967;DHT22;15175;48.154;11.534;2023-11-19T11:55:55;13.60;99.90
15967;DHT22;15175;48.154;11.534;2023-11-19T12:01:59;13.60;99.90
15967;DHT22;15175;48.154;11.534;2023-11-19T12:08:03;13.70;99.90
15967;DHT22;15175;48.154;11.534;2023-11-19T12:14:08;13.80;99.90
15967;DHT22;15175;48.154;11.534;2023-11-19T12:20:11;13.80;99.90
15967;DHT22;15175;48.154;11.534;2023-11-19T12:26:34;13.90;99.90
15967;DHT22;15175;48.154;11.534;2023-11-19T12:32:42;14.00;99.90
15967;DHT22;15175;48.154;11.534;2023-11-19T12:38:44;14.00;99.90
15967;DHT22;15175;48.154;11.534;2023-11-19T12:44:54;14.20;99.90
15967;DHT22;15175;48.154;11.534;2023-11-19T12:50:58;14.40;99.90
15967;DHT22;15175;48.154;11.534;2023-11-19T12:57:02;14.80;99.90
15967;DHT22;15175;48.154;11.534;2023-11-19T13:03:08;15.30;99.90
15967;DHT22;15175;48.154;11.534;2023-11-19T13:09:23;15.60;99.90
15967;DHT22;15175;48.154;11.534;2023-11-19T13:15:27;15.80;99.90
15967;DHT22;15175;48.154;11.534;2023-11-19T13:21:32;15.60;99.90
15967;DHT22;15175;48.154;11.534;2023-11-19T13:27:36;15.20;99.90
15967;DHT22;15175;48.154;11.534;2023-11-19T13:33:38;15.00;99.90
15967;DHT22;15175;48.154;11.534;2023-11-19T13:39:42;14.80;99.90
15967;DHT22;15175;48.154;11.534;2023-11-19T13:45:45;14.80;99.90
15967;DHT22;15175;48.154;11.534;2023-11-19T13:51:47;14.60;99.90
15967;DHT22;15175;48.154;11.534;2023-11-19T13:57:49;14.50;99.90
15967;DHT22;15175;48.154;11.534;2023-11-19T14:03:53;14.40;99.90
15967;DHT22;15175;48.154;11.534;2023-11-19T14:09:55;14.30;99.90
15967;DHT22;15175;48.154;11.534;2023-11-19T14:15:57;14.20;99.90
15967;DHT22;15175;48.154;11.534;2023-11-19T14:22:00;14.10;99.90
15967;DHT22;15175;48.154;11.534;2023-11-19T14:28:03;14.00;99.90
15967;DHT22;15175;48.154;11.534;2023-11-19T14:34:05;14.00;99.90
15967;DHT22;15175;48.154;11.534;2023-11-19T14:40:10;13.90;99.90
15967;DHT22;15175;48.154;11.534;2023-11-19T14:46:12;13.80;99.90
15967;DHT22;15175;48.154;11.534;2023-11-19T14:52:14;13.80;99.90
15967;DHT22;15175;48.154;11.534;2023-11-19T14:58:18;13.80;99.90
15967;DHT22;15175;48.154;11.534;2023-11-19T15:04:20;13.70;99.90
15967;DHT22;15175;48.154;11.534;2023-11-19T15:10:22;13.60;99.90
15967;DHT22;15175;48.154;11.534;2023-11-19T15:16:26;13.60;99.90
15967;DHT22;15175;48.154;11.534;2023-11-19T15:22:33;13.50;99.90
15967;DHT22;15175;48.154;11.534;2023-11-19T15:28:35;13.40;99.90
15967;DHT22;15175;48.154;11.534;2023-11-19T15:34:39;13.30;99.90
15967;DHT22;15175;48.154;11.534;2023-11-19T15:40:42;13.20;99.90
15967;DHT22;15175;48.154;11.534;2023-11-19T15:46:44;13.10;99.90
15967;DHT22;15175;48.154;11.534;2023-11-19T15:52:48;13.10;99.90
15967;DHT22;15175;48.154;11.534;2023-11-19T15:58:50;13.00;99.90
15967;DHT22;15175;48.154;11.534;2023-11-19T16:04:52;12.90;99.90
15967;DHT22;15175;48.154;11.534;2023-11-19T16:10:56;12.90;99.90
15967;DHT22;15175;48.154;11.534;2023-11-19T16:16:58;12.80;99.90
15967;DHT22;15175;48.154;11.534;2023-11-19T16:23:01;12.80;99.90
15967;DHT22;15175;48.154;11.534;2023-11-19T16:29:07;12.80;99.90
15967;DHT22;15175;48.154;11.534;2023-11-19T16:35:09;12.80;99.90
15967;DHT22;15175;48.154;11.534;2023-11-19T16:41:11;12.70;99.90
15967;DHT22;15175;48.154;11.534;2023-11-19T16:47:16;12.60;99.90
15967;DHT22;15175;48.154;11.534;2023-11-19T16:53:18;12.60;99.90
15967;DHT22;15175;48.154;11.534;2023-11-19T16:59:20;12.60;99.90
15967;DHT22;15175;48.154;11.534;2023-11-19T17:05:24;12.40;99.90
15967;DHT22;15175;48.154;11.534;2023-11-19T17:11:26;12.50;99.90
15967;DHT22;15175;48.154;11.534;2023-11-19T17:17:30;12.40;99.90
15967;DHT22;15175;48.154;11.534;2023-11-19T17:23:37;12.40;99.90
15967;DHT22;15175;48.154;11.534;2023-11-19T17:29:41;12.40;99.90
15967;DHT22;15175;48.154;11.534;2023-11-19T17:35:43;12.40;99.90
15967;DHT22;15175;48.154;11.534;2023-11-19T17:41:47;12.30;99.90
15967;DHT22;15175;48.154;11.534;2023-11-19T17:47:50;12.30;99.90
15967;DHT22;15175;48.154;11.534;2023-11-19T17:53:52;12.30;99.90
15967;DHT22;15175;48.154;11.534;2023-11-19T17:59:57;12.30;99.90
15967;DHT22;15175;48.154;11.534;2023-11-19T18:05:59;12.20;99.90
15967;DHT22;15175;48.154;11.534;2023-11-19T18:12:01;12.20;99.90
15967;DHT22;15175;48.154;11.534;2023-11-19T18:18:05;12.20;99.90
15967;DHT22;15175;48.154;11.534;2023-11-19T18:24:07;12.10;99.90
15967;DHT22;15175;48.154;11.534;2023-11-19T18:30:11;12.10;99.90
15967;DHT22;15175;48.154;11.534;2023-11-19T18:36:15;12.10;99.90
15967;DHT22;15175;48.154;11.534;2023-11-19T18:42:18;12.10;99.90
15967;DHT22;15175;48.154;11.534;2023-11-19T18:48:20;12.00;99.90
15967;DHT22;15175;48.154;11.534;2023-11-19T18:54:23;12.00;99.90
15967;DHT22;15175;48.154;11.534;2023-11-19T19:00:25;12.00;99.90
15967;DHT22;15175;48.154;11.534;2023-11-19T19:06:27;12.00;99.90
15967;DHT22;15175;48.154;11.534;2023-11-19T19:12:31;12.00;99.90
15967;DHT22;15175;48.154;11.534;2023-11-19T19:18:35;12.00;99.90
15967;DHT22;15175;48.154;11.534;2023-11-19T19:24:38;11.90;99.90
15967;DHT22;15175;48.154;11.534;2023-11-19T19:30:42;11.90;99.90
15967;DHT22;15175;48.154;11.534;2023-11-19T19:36:44;11.80;99.90
15967;DHT22;15175;48.154;11.534;2023-11-19T19:42:46;11.80;99.90
15967;DHT22;15175;48.154;11.534;2023-11-19T19:48:50;11.80;99.90
15967;DHT22;15175;48.154;11.534;2023-11-19T19:54:53;11.80;99.90
15967;DHT22;15175;48.154;11.534;2023-11-19T20:00:56;11.70;99.90
15967;DHT22;15175;48.154;11.534;2023-11-19T20:07:01;11.70;99.90
15967;DHT22;15175;48.154;11.534;2023-11-19T20:13:04;11.60;99.90
15967;DHT22;15175;48.154;11.534;2023-11-19T20:19:10;11.60;99.90
15967;DHT22;15175;48.154;11.534;2023-11-19T20:25:13;11.60;99.90
15967;DHT22;15175;48.154;11.534;2023-11-19T20:31:16;11.60;99.90
15967;DHT22;15175;48.154;11.534;2023-11-19T20:37:19;11.50;99.90
15967;DHT22;15175;48.154;11.534;2023-11-19T20:43:23;11.50;99.90
15967;DHT22;15175;48.154;11.534;2023-11-19T20:49:25;11.50;99.90
15967;DHT22;15175;48.154;11.534;2023-11-19T20:55:27;11.50;99.90
15967;DHT22;15175;48.154;11.534;2023-11-19T21:01:31;11.50;99.90
15967;DHT22;15175;48.154;11.534;2023-11-19T21:07:33;11.60;99.90
15967;DHT22;15175;48.154;11.534;2023-11-19T21:13:35;11.60;99.90
15967;DHT22;15175;48.154;11.534;2023-11-19T21:19:39;11.60;99.90
15967;DHT22;15175;48.154;11.534;2023-11-19T21:25:43;11.50;99.90
15967;DHT22;15175;48.154;11.534;2023-11-19T21:31:45;11.50;99.90
15967;DHT22;15175;48.154;11.534;2023-11-19T21:37:48;11.60;99.90
15967;DHT22;15175;48.154;11.534;2023-11-19T21:43:50;11.60;99.90
15967;DHT22;15175;48.154;11.534;2023-11-19T21:49:53;11.60;99.90
15967;DHT22;15175;48.154;11.534;2023-11-19T21:55:56;11.60;99.90
15967;DHT22;15175;48.154;11.534;2023-11-19T22:01:59;11.60;99.90
15967;DHT22;15175;48.154;11.534;2023-11-19T22:08:02;11.60;99.90
15967;DHT22;15175;48.154;11.534;2023-11-19T22:14:06;11.50;99.90
15967;DHT22;15175;48.154;11.534;2023-11-19T22:20:08;11.50;99.90
15967;DHT22;15175;48.154;11.534;2023-11-19T22:26:11;11.60;99.90
15967;DHT22;15175;48.154;11.534;2023-11-19T22:32:14;11.60;99.90
15967;DHT22;15175;48.154;11.534;2023-11-19T22:38:17;11.60;99.90
15967;DHT22;15175;48.154;11.534;2023-11-19T22:44:21;11.50;99.90
15967;DHT22;15175;48.154;11.534;2023-11-19T22:50:26;11.50;99.90
15967;DHT22;15175;48.154;11.534;2023-11-19T22:56:28;11.50;99.90
15967;DHT22;15175;48.154;11.534;2023-11-19T23:02:30;11.50;99.90
15967;DHT22;15175;48.154;11.534;2023-11-19T23:08:33;11.50;99.90
15967;DHT22;15175;48.154;11.534;2023-11-19T23:14:37;11.50;99.90
15967;DHT22;15175;48.154;11.534;2023-11-19T23:20:39;11.50;99.90
15967;DHT22;15175;48.154;11.534;2023-11-19T23:26:42;11.50;99.90
15967;DHT22;15175;48.154;11.534;2023-11-19T23:32:45;11.50;99.90
15967;DHT22;15175;48.154;11.534;2023-11-19T23:38:47;11.50;99.90
15967;DHT22;15175;48.154;11.534;2023-11-19T23:44:50;11.40;99.90
15967;DHT22;15175;48.154;11.534;2023-11-19T23:50:52;11.40;99.90
15967;DHT22;15175;48.154;11.534;2023-11-19T23:56:55;11.40;99.90
